Stations météo

réclame
Mon MeteoGroup
London/Gatwick, Grande-Bretagne (3776): Température de l'air & dewpoint: 10.08.2018 03:00:00 - 16.08.2018 03:00:00 (BST)London/Gatwick, Grande-Bretagne (3776): Vitesse du vent: 10.08.2018 03:00:00 - 16.08.2018 03:00:00 (BST)London/Gatwick, Grande-Bretagne (3776): Direction du vent: 10.08.2018 03:00:00 - 16.08.2018 03:00:00 (BST)London/Gatwick, Grande-Bretagne (3776): visibility: 10.08.2018 03:00:00 - 16.08.2018 03:00:00 (BST)
Date & Time tt [°C] td [°C] ff [km/h] ff [knt] dd vv [km]
16.08.2018 03:00:00 - - - - - -
16.08.2018 02:00:00 18,0 16,0 13 7 SSW 10
16.08.2018 01:00:00 17,0 16,0 13 7 SSW 10
16.08.2018 00:00:00 17,0 15,0 15 8 SSW 10
15.08.2018 23:00:00 17,0 15,0 11 6 SSW 10
15.08.2018 22:00:00 17,0 15,0 13 7 SSW 10
15.08.2018 21:00:00 18,0 15,0 13 7 SSW 10
15.08.2018 20:00:00 19,0 15,0 16 9 SW 10
15.08.2018 19:00:00 20,0 15,0 16 9 SW 10
15.08.2018 18:00:00 21,0 14,0 21 11 SW 10
15.08.2018 17:00:00 22,0 15,0 18 10 SW 10
15.08.2018 16:00:00 22,0 15,0 18 10 SW 10
15.08.2018 15:00:00 22,0 16,0 16 9 SW 10
15.08.2018 14:00:00 21,0 16,0 15 8 SW 10
15.08.2018 13:00:00 21,0 15,0 15 8 SW 10
15.08.2018 12:00:00 20,0 15,0 18 10 WSW 10
15.08.2018 11:00:00 20,0 15,0 13 7 SW 10
15.08.2018 10:00:00 19,0 14,0 15 8 SW 10
15.08.2018 09:00:00 18,0 14,0 11 6 SW 10
15.08.2018 08:00:00 17,0 14,0 13 7 W 10
15.08.2018 07:00:00 17,0 14,0 11 6 WSW 10
15.08.2018 06:00:00 17,0 14,0 13 7 WSW 10
15.08.2018 05:00:00 17,0 14,0 11 6 WSW 10
15.08.2018 04:00:00 17,0 14,0 11 6 SW 10
15.08.2018 03:00:00 16,0 14,0 8 4 SW 10
15.08.2018 02:00:00 15,0 13,0 5 3 WSW 10
15.08.2018 01:00:00 16,0 13,0 9 5 WSW 10
15.08.2018 00:00:00 18,0 14,0 13 7 WSW 10
14.08.2018 23:00:00 19,0 15,0 15 8 W 10
14.08.2018 22:00:00 19,0 17,0 9 5 SW 10
14.08.2018 21:00:00 20,0 17,0 11 6 SW 10
14.08.2018 20:00:00 21,0 17,0 11 6 SW 10
14.08.2018 19:00:00 22,0 17,0 16 9 SW 10
14.08.2018 18:00:00 23,0 17,0 18 10 SW 10
14.08.2018 17:00:00 23,0 16,0 16 9 SW 10
14.08.2018 16:00:00 25,0 14,0 21 11 W 10
14.08.2018 15:00:00 24,0 13,0 21 11 WSW 10
14.08.2018 14:00:00 22,0 13,0 18 10 WNW 10
14.08.2018 13:00:00 22,0 12,0 18 10 W 10
14.08.2018 12:00:00 20,0 14,0 15 8 W 10
14.08.2018 11:00:00 20,0 13,0 16 9 W 10
14.08.2018 10:00:00 18,0 14,0 9 5 SW 10
14.08.2018 09:00:00 17,0 14,0 5 3 - 10
14.08.2018 08:00:00 16,0 13,0 13 7 W 10
14.08.2018 07:00:00 14,0 13,0 4 2 - 10
14.08.2018 06:00:00 13,0 13,0 4 2 WSW 10
14.08.2018 05:00:00 14,0 13,0 8 4 SW 10
14.08.2018 04:00:00 14,0 14,0 5 3 SW 10
14.08.2018 03:00:00 15,0 13,0 8 4 W 10
14.08.2018 02:00:00 17,0 14,0 9 5 WNW 10
14.08.2018 01:00:00 17,0 14,0 8 4 W 10
14.08.2018 00:00:00 19,0 14,0 9 5 WNW 10
13.08.2018 23:00:00 19,0 15,0 13 7 WNW 10
13.08.2018 22:00:00 20,0 15,0 13 7 W 10
13.08.2018 21:00:00 20,0 14,0 8 4 WSW 10
13.08.2018 20:00:00 21,0 15,0 9 5 SW 10
13.08.2018 19:00:00 22,0 14,0 15 8 W 10
13.08.2018 18:00:00 23,0 13,0 24 13 W 10
13.08.2018 17:00:00 - - - - - -
13.08.2018 16:00:00 22,0 14,0 21 11 WNW 10
13.08.2018 15:00:00 22,0 15,0 16 9 W 10
13.08.2018 14:00:00 22,0 15,0 18 10 WSW 10
13.08.2018 13:00:00 21,0 15,0 16 9 W 10
13.08.2018 12:00:00 20,0 16,0 16 9 W 10
13.08.2018 11:00:00 18,0 16,0 16 9 W 10
13.08.2018 10:00:00 18,0 16,0 15 8 W 10
13.08.2018 09:00:00 17,0 16,0 11 6 W 10
13.08.2018 08:00:00 17,0 16,0 11 6 WSW 10
13.08.2018 07:00:00 16,0 16,0 9 5 W 6
13.08.2018 06:00:00 15,0 15,0 5 3 WSW 5
13.08.2018 05:00:00 16,0 16,0 5 3 W 6
13.08.2018 04:00:00 16,0 16,0 4 2 SW 6
13.08.2018 03:00:00 16,0 16,0 4 2 WSW 6
13.08.2018 02:00:00 16,0 16,0 4 2 - 6
13.08.2018 01:00:00 16,0 16,0 4 2 SSE 6
13.08.2018 00:00:00 16,0 16,0 5 3 - 8
12.08.2018 23:00:00 17,0 16,0 4 2 - 10
12.08.2018 22:00:00 16,0 16,0 4 2 - 3,5
12.08.2018 21:00:00 16,0 16,0 8 4 S 9
12.08.2018 20:00:00 18,0 14,0 13 7 SSW 10
12.08.2018 19:00:00 19,0 13,0 11 6 SSW 10
12.08.2018 18:00:00 19,0 13,0 11 6 S 10
12.08.2018 17:00:00 19,0 14,0 13 7 S 10
12.08.2018 16:00:00 19,0 14,0 18 10 SW 10
12.08.2018 15:00:00 19,0 14,0 15 8 S 10
12.08.2018 14:00:00 20,0 14,0 16 9 SSW 10
12.08.2018 13:00:00 20,0 14,0 18 10 SW 10
12.08.2018 12:00:00 20,0 14,0 15 8 S 10
12.08.2018 11:00:00 21,0 13,0 18 10 S 10
12.08.2018 10:00:00 20,0 14,0 15 8 S 10
12.08.2018 09:00:00 20,0 15,0 21 11 S 10
12.08.2018 08:00:00 - - - - - -
12.08.2018 07:00:00 18,0 16,0 9 5 SSW 10
12.08.2018 06:00:00 17,0 16,0 4 2 - 10
12.08.2018 05:00:00 17,0 16,0 9 5 SSE 10
12.08.2018 04:00:00 17,0 15,0 9 5 SSE 10
12.08.2018 03:00:00 16,0 15,0 8 4 SSE 10
12.08.2018 02:00:00 17,0 15,0 9 5 SSE 10
12.08.2018 01:00:00 17,0 15,0 9 5 SSE 10
12.08.2018 00:00:00 17,0 15,0 8 4 SSE 10
11.08.2018 23:00:00 17,0 15,0 9 5 SSE 10
11.08.2018 22:00:00 17,0 15,0 8 4 SSE 10
11.08.2018 21:00:00 17,0 16,0 8 4 SSE 10
11.08.2018 20:00:00 18,0 15,0 11 6 SSW 10
11.08.2018 19:00:00 18,0 15,0 13 7 SSW 10
11.08.2018 18:00:00 18,0 15,0 13 7 S 10
11.08.2018 17:00:00 19,0 14,0 13 7 SSW 10
11.08.2018 16:00:00 18,0 13,0 15 8 SSW 10
11.08.2018 15:00:00 19,0 12,0 15 8 SSW 10
11.08.2018 14:00:00 19,0 9,0 16 9 SSW 10
11.08.2018 13:00:00 19,0 9,0 11 6 S 10
11.08.2018 12:00:00 19,0 9,0 9 5 - 10
11.08.2018 11:00:00 18,0 8,0 8 4 SW 10
11.08.2018 10:00:00 16,0 9,0 5 3 - 10
11.08.2018 09:00:00 15,0 10,0 4 2 - 10
11.08.2018 08:00:00 12,0 10,0 2 1 - 10
11.08.2018 07:00:00 10,0 10,0 2 1 S 10
11.08.2018 06:00:00 8,0 8,0 4 2 SW 10
11.08.2018 05:00:00 8,0 8,0 2 1 SSW 10
11.08.2018 04:00:00 9,0 9,0 2 1 - 10
11.08.2018 03:00:00 9,0 9,0 4 2 SSW 10
11.08.2018 02:00:00 10,0 10,0 2 1 S 10
11.08.2018 01:00:00 11,0 10,0 2 1 S 10
11.08.2018 00:00:00 12,0 11,0 4 2 SW 10
10.08.2018 23:00:00 13,0 11,0 5 3 SW 10
10.08.2018 22:00:00 14,0 12,0 4 2 - 10
10.08.2018 21:00:00 15,0 13,0 13 7 W 10
10.08.2018 20:00:00 16,0 13,0 15 8 WSW 10
10.08.2018 19:00:00 17,0 14,0 16 9 SW 10
10.08.2018 18:00:00 16,0 15,0 16 9 SW 10
10.08.2018 17:00:00 16,0 14,0 18 10 SW 10
10.08.2018 16:00:00 16,0 15,0 18 10 WSW 10
10.08.2018 15:00:00 16,0 15,0 26 14 SW 4,0
10.08.2018 14:00:00 17,0 16,0 24 13 SW 10
10.08.2018 13:00:00 15,0 14,0 16 9 S 5
10.08.2018 12:00:00 17,0 14,0 18 10 SW 10
10.08.2018 11:00:00 17,0 13,0 13 7 SW 10
10.08.2018 10:00:00 17,0 12,0 13 7 SSW 10
10.08.2018 09:00:00 16,0 12,0 11 6 SW 10
10.08.2018 08:00:00 14,0 12,0 8 4 SW 10
10.08.2018 07:00:00 12,0 10,0 5 3 SSW 10
10.08.2018 06:00:00 10,0 9,0 2 1 - 10
10.08.2018 05:00:00 10,0 9,0 4 2 - 10
10.08.2018 04:00:00 10,0 9,0 8 4 SSW 10
10.08.2018 03:00:00 10,0 9,0 4 2 SW 10

tt = Température de l'air
td = dewpoint
ff = Vitesse du vent
dd = Direction du vent
vv = visibility

stations d'obs. à proximité